Sultan Ismail Petra Airport Kota Baharu MY
ICAO: WMKC
IATA:
Category: Medium
Scheduled Services:

Elevation: 16 ft
TransAlt. 11000 ft.

Airport Communications:
KOTA BHARU GND:121.6
KOTA BHARU TWR:122.5

WMKC Zoom In..

If you have problems with the map follow the link
https://www.worldairports.se/pages/airport.php?
ICAO=WMKC

Runways:

(A) RW 10 length 7874 ft width 148 ft
ILS 109.30 / hdg 100

(B) RW 28 length 7874 ft width 148 ft
---- / hdg 280

Location; WMKC
Day. 05 / Time. 15.00 Zulu
* QNH: 1014
* Temperature: 27° c. 80.6°f.
* Wind from: 070° Speed 08 kn.
Dewpoint: 23° c.
Visibility: 10 km or more.
Clouds: Scattered 2000 ft.

WMKC 051500Z 07008KT 030V100 9999 SCT020 27/23 Q1014


Wind From 070°
Speed 08 kn.

 
 
jpsmedia worldairports.se 2019   terms of use